Time;durP1;ratioP1;P1;durP2;ratioP2;P2;SDS_P1;SDS_P2;PMS_P1;PMS_P2;Temp;Humidity;BMP_temperature;BMP_pressure;BME280_temperature;BME280_humidity;BME280_pressure;Samples;Min_cycle;Max_cycle;Signal;HPM_P1;HPM_P2
2023/03/10 00:00:48;;;;;;;36.70;22.90;;;1.20;79.80;;;;;;6236762;28;20246;-83
2023/03/10 00:03:53;;;;;;;34.53;23.70;;;1.20;79.70;;;;;;6238034;28;20255;-85
2023/03/10 00:06:57;;;;;;;33.40;22.03;;;1.20;79.60;;;;;;6237881;28;20822;-82
2023/03/10 00:10:00;;;;;;;29.30;20.80;;;1.20;79.50;;;;;;6227953;28;20236;-82
2023/03/10 00:13:04;;;;;;;27.63;19.90;;;1.20;79.60;;;;;;6236546;28;20296;-80
2023/03/10 00:16:08;;;;;;;29.30;21.47;;;1.10;79.70;;;;;;6226127;28;20570;-85
2023/03/10 00:19:11;;;;;;;28.13;20.60;;;1.20;79.70;;;;;;6230625;28;20231;-84
2023/03/10 00:22:17;;;;;;;28.33;19.97;;;1.20;79.60;;;;;;6227944;28;20243;-82
2023/03/10 00:25:20;;;;;;;28.40;19.87;;;1.10;79.70;;;;;;6228566;28;20261;-82
2023/03/10 00:28:24;;;;;;;31.73;21.63;;;1.20;79.70;;;;;;6235898;28;20338;-85
2023/03/10 00:31:30;;;;;;;31.20;21.03;;;1.20;79.50;;;;;;6231178;28;20444;-82
2023/03/10 00:34:33;;;;;;;29.07;21.00;;;1.20;79.60;;;;;;6239340;28;20762;-82
2023/03/10 00:37:39;;;;;;;29.27;20.00;;;1.20;79.50;;;;;;6233919;28;20235;-82
2023/03/10 00:40:42;;;;;;;30.53;19.70;;;1.20;79.60;;;;;;6248798;28;20241;-81
2023/03/10 00:43:45;;;;;;;25.33;19.03;;;1.10;79.60;;;;;;6234350;28;20262;-81
2023/03/10 00:46:48;;;;;;;27.10;19.73;;;1.20;79.70;;;;;;6227113;28;20392;-80
2023/03/10 00:49:52;;;;;;;26.83;20.30;;;1.20;79.80;;;;;;6259269;28;20465;-81
2023/03/10 00:52:56;;;;;;;30.00;20.33;;;1.20;79.80;;;;;;6248831;28;20229;-82
2023/03/10 00:56:01;;;;;;;26.73;20.37;;;1.20;79.70;;;;;;6247077;28;20302;-83
2023/03/10 00:59:05;;;;;;;29.40;19.80;;;1.10;79.90;;;;;;6245190;28;20235;-82
2023/03/10 01:02:08;;;;;;;28.53;19.93;;;1.20;79.90;;;;;;6240086;28;20288;-82
2023/03/10 01:05:12;;;;;;;25.27;18.67;;;1.10;79.80;;;;;;6228924;28;20234;-80
2023/03/10 01:08:16;;;;;;;26.97;19.00;;;1.10;79.90;;;;;;6240433;28;20235;-82
2023/03/10 01:11:21;;;;;;;28.73;19.77;;;1.20;80.00;;;;;;6228888;28;20328;-83
2023/03/10 01:14:25;;;;;;;28.57;18.87;;;1.20;79.90;;;;;;6233517;28;20267;-82
2023/03/10 01:17:28;;;;;;;26.37;18.97;;;1.20;79.60;;;;;;6234754;28;20322;-83
2023/03/10 01:20:34;;;;;;;29.90;20.03;;;1.20;79.60;;;;;;6223295;28;20242;-83
2023/03/10 01:23:39;;;;;;;28.40;19.93;;;1.20;79.50;;;;;;6236157;28;20290;-80
2023/03/10 01:26:42;;;;;;;31.90;20.87;;;1.20;79.50;;;;;;6230956;28;20232;-82
2023/03/10 01:29:45;;;;;;;29.33;20.00;;;1.10;79.80;;;;;;6215193;28;20235;-82
2023/03/10 01:32:48;;;;;;;28.97;19.97;;;1.10;79.70;;;;;;6225382;28;20234;-82
2023/03/10 01:35:51;;;;;;;28.87;19.33;;;1.10;79.70;;;;;;6223328;28;20228;-82
2023/03/10 01:38:57;;;;;;;32.67;20.37;;;1.10;79.80;;;;;;6234099;28;20420;-82
2023/03/10 01:42:00;;;;;;;24.13;17.90;;;1.10;79.90;;;;;;6228746;28;20425;-82
2023/03/10 01:45:06;;;;;;;26.87;18.43;;;1.10;79.90;;;;;;6235967;28;20570;-81
2023/03/10 01:48:09;;;;;;;25.53;18.10;;;1.10;80.00;;;;;;6231166;28;20250;-83
2023/03/10 01:51:12;;;;;;;25.03;18.40;;;1.10;79.90;;;;;;6231063;28;20244;-84
2023/03/10 01:54:21;;;;;;;25.33;18.53;;;1.10;79.90;;;;;;6227928;28;20234;-83
2023/03/10 01:57:28;;;;;;;25.50;17.70;;;1.10;80.00;;;;;;6226554;28;20239;-83
2023/03/10 02:00:31;;;;;;;25.23;18.00;;;1.10;80.20;;;;;;6221734;28;20331;-83
2023/03/10 02:03:37;;;;;;;25.83;18.47;;;1.20;80.10;;;;;;6213192;28;20665;-81
2023/03/10 02:06:42;;;;;;;22.80;16.93;;;1.20;80.10;;;;;;6221050;28;20239;-82
2023/03/10 02:09:49;;;;;;;23.33;17.27;;;1.20;80.10;;;;;;6229308;28;20237;-83
2023/03/10 02:12:52;;;;;;;20.60;16.20;;;1.20;80.10;;;;;;6216163;28;20231;-80
2023/03/10 02:15:55;;;;;;;23.67;17.50;;;1.20;80.10;;;;;;6220439;28;20235;-81
2023/03/10 02:18:59;;;;;;;24.13;18.07;;;1.20;80.20;;;;;;6211087;28;20286;-82
2023/03/10 02:22:07;;;;;;;27.00;18.07;;;1.20;80.30;;;;;;6231275;28;20728;-86
2023/03/10 02:25:25;;;;;;;24.27;17.97;;;1.20;80.30;;;;;;6213729;28;20242;-82
2023/03/10 02:28:29;;;;;;;27.50;18.30;;;1.20;80.40;;;;;;6223594;28;20470;-85
2023/03/10 02:31:35;;;;;;;24.00;18.27;;;1.20;80.50;;;;;;6209409;28;20239;-81
2023/03/10 02:34:39;;;;;;;23.10;17.20;;;1.20;80.50;;;;;;6199317;28;20315;-84
2023/03/10 02:37:42;;;;;;;25.07;17.63;;;1.30;80.30;;;;;;6221343;28;20238;-81
2023/03/10 02:40:46;;;;;;;23.60;17.13;;;1.30;80.40;;;;;;6225035;28;20239;-85
2023/03/10 02:43:52;;;;;;;22.63;17.13;;;1.30;80.40;;;;;;6207684;28;20231;-81
2023/03/10 02:46:55;;;;;;;25.27;17.47;;;1.40;80.20;;;;;;6221641;28;20432;-83
2023/03/10 02:49:58;;;;;;;25.60;16.63;;;1.40;80.30;;;;;;6214669;28;20245;-82
2023/03/10 02:53:06;;;;;;;25.27;16.70;;;1.40;80.40;;;;;;6228417;28;20237;-82
2023/03/10 02:56:10;;;;;;;23.23;16.67;;;1.40;80.30;;;;;;6206176;28;20242;-85
2023/03/10 02:59:15;;;;;;;17.60;15.20;;;1.40;80.40;;;;;;6226919;28;20242;-85
2023/03/10 03:02:18;;;;;;;21.70;16.60;;;1.40;80.20;;;;;;6225307;28;20741;-82
2023/03/10 03:05:21;;;;;;;22.40;16.53;;;1.40;80.40;;;;;;6220805;28;20627;-82
2023/03/10 03:08:24;;;;;;;24.00;17.10;;;1.40;80.50;;;;;;6214293;28;20314;-84
2023/03/10 03:11:27;;;;;;;23.43;17.50;;;1.40;80.40;;;;;;6230582;28;20250;-80
2023/03/10 03:14:32;;;;;;;19.30;15.93;;;1.40;80.40;;;;;;6249196;28;20235;-80
2023/03/10 03:17:35;;;;;;;21.87;15.83;;;1.40;80.50;;;;;;6246459;28;20236;-85
2023/03/10 03:20:40;;;;;;;20.10;15.23;;;1.40;80.50;;;;;;6223533;28;20243;-81
2023/03/10 03:23:43;;;;;;;19.50;15.37;;;1.40;80.50;;;;;;6233585;28;20251;-84
2023/03/10 03:26:46;;;;;;;18.80;13.83;;;1.40;80.50;;;;;;6240052;28;20225;-81
2023/03/10 03:29:50;;;;;;;18.17;14.23;;;1.40;80.40;;;;;;6245732;28;20226;-83
2023/03/10 03:32:55;;;;;;;16.83;13.50;;;1.40;80.50;;;;;;6259355;28;20256;-80
2023/03/10 03:35:58;;;;;;;16.57;13.93;;;1.40;80.40;;;;;;6258834;28;20257;-80
2023/03/10 03:39:02;;;;;;;19.10;14.20;;;1.40;80.40;;;;;;6243197;28;20229;-80
2023/03/10 03:42:09;;;;;;;17.30;14.17;;;1.40;80.50;;;;;;6234528;28;20292;-82
2023/03/10 03:45:15;;;;;;;16.17;14.37;;;1.40;80.50;;;;;;6229077;28;20242;-83
2023/03/10 03:48:18;;;;;;;16.73;13.77;;;1.40;80.50;;;;;;6207317;28;20409;-81
2023/03/10 03:51:24;;;;;;;16.67;13.13;;;1.50;80.30;;;;;;6240732;28;20246;-82
2023/03/10 03:54:27;;;;;;;15.13;13.13;;;1.40;80.30;;;;;;6212032;28;20241;-84
2023/03/10 03:57:30;;;;;;;14.33;12.40;;;1.40;80.30;;;;;;6224385;28;20235;-83
2023/03/10 04:00:35;;;;;;;15.63;13.20;;;1.40;80.30;;;;;;6241887;28;20287;-81
2023/03/10 04:03:38;;;;;;;16.60;12.37;;;1.40;80.40;;;;;;6245948;28;20237;-80
2023/03/10 04:06:41;;;;;;;13.90;12.33;;;1.40;80.30;;;;;;6242984;28;20243;-81
2023/03/10 04:09:44;;;;;;;12.40;11.20;;;1.40;80.50;;;;;;6250391;28;20243;-80
2023/03/10 04:12:47;;;;;;;12.97;11.53;;;1.40;80.40;;;;;;6214757;28;20723;-83
2023/03/10 04:15:56;;;;;;;13.40;12.00;;;1.40;80.40;;;;;;6227387;28;20578;-81
2023/03/10 04:19:00;;;;;;;13.80;12.30;;;1.40;80.50;;;;;;6246527;28;20237;-81
2023/03/10 04:22:03;;;;;;;13.53;12.13;;;1.40;80.50;;;;;;6224170;28;20251;-81
2023/03/10 04:25:08;;;;;;;14.13;12.20;;;1.40;80.50;;;;;;6220632;28;20232;-82
2023/03/10 04:28:12;;;;;;;12.73;10.93;;;1.40;80.60;;;;;;6222564;28;20242;-81
2023/03/10 04:31:19;;;;;;;12.70;11.40;;;1.40;80.60;;;;;;6203655;28;20738;-83
2023/03/10 04:34:23;;;;;;;12.70;11.40;;;1.40;80.50;;;;;;6203569;28;20246;-83
2023/03/10 04:37:26;;;;;;;13.43;12.13;;;1.40;80.50;;;;;;6213261;28;20243;-83
2023/03/10 04:40:29;;;;;;;14.10;12.07;;;1.50;80.50;;;;;;6189555;28;20744;-86
2023/03/10 04:43:33;;;;;;;12.33;11.13;;;1.50;80.50;;;;;;6208056;28;20239;-82
2023/03/10 04:46:37;;;;;;;13.07;11.83;;;1.40;80.50;;;;;;6209975;28;20369;-83
2023/03/10 04:49:40;;;;;;;13.03;11.73;;;1.40;80.50;;;;;;6220429;28;20239;-80
2023/03/10 04:52:44;;;;;;;13.53;12.13;;;1.40;80.60;;;;;;6206357;28;20235;-83
2023/03/10 04:55:47;;;;;;;14.90;12.27;;;1.50;80.50;;;;;;6207217;28;20227;-84
2023/03/10 04:58:51;;;;;;;13.87;11.23;;;1.50;80.50;;;;;;6219159;28;20230;-82
2023/03/10 05:01:55;;;;;;;12.70;11.50;;;1.50;80.40;;;;;;6199631;28;20243;-83
2023/03/10 05:05:00;;;;;;;13.50;12.23;;;1.50;80.50;;;;;;6207557;28;20236;-77
2023/03/10 05:08:03;;;;;;;13.17;11.87;;;1.60;80.40;;;;;;6211871;28;20227;-78
2023/03/10 05:11:07;;;;;;;13.37;12.17;;;1.60;80.40;;;;;;6202115;28;20231;-77
2023/03/10 05:14:11;;;;;;;13.10;11.50;;;1.50;80.40;;;;;;6231737;28;20396;-78
2023/03/10 05:17:15;;;;;;;16.07;12.93;;;1.60;80.50;;;;;;6216793;28;20234;-76
2023/03/10 05:20:19;;;;;;;13.10;11.90;;;1.60;80.50;;;;;;6225236;28;20738;-76
2023/03/10 05:23:22;;;;;;;13.23;12.03;;;1.50;80.60;;;;;;6225481;28;20234;-78
2023/03/10 05:26:26;;;;;;;13.17;11.87;;;1.60;80.60;;;;;;6222682;28;20242;-78
2023/03/10 05:29:29;;;;;;;13.90;12.60;;;1.60;80.60;;;;;;6211456;28;20589;-76
2023/03/10 05:32:35;;;;;;;12.80;11.63;;;1.60;80.70;;;;;;6216528;28;20236;-77
2023/03/10 05:35:39;;;;;;;13.30;12.00;;;1.60;80.70;;;;;;6217547;28;20239;-77
2023/03/10 05:38:42;;;;;;;14.00;12.67;;;1.70;80.60;;;;;;6207778;28;20243;-78
2023/03/10 05:41:46;;;;;;;13.20;11.90;;;1.70;80.60;;;;;;6227557;28;20238;-78
2023/03/10 05:44:49;;;;;;;14.03;12.57;;;1.70;80.50;;;;;;6225915;28;20235;-77
2023/03/10 05:47:53;;;;;;;13.00;11.73;;;1.70;80.60;;;;;;6220828;28;20266;-78
2023/03/10 05:51:01;;;;;;;12.73;11.60;;;1.70;80.60;;;;;;6218942;28;20254;-78
2023/03/10 05:54:05;;;;;;;13.33;11.63;;;1.70;80.70;;;;;;6212902;28;20227;-77
2023/03/10 05:57:08;;;;;;;13.13;11.13;;;1.70;80.60;;;;;;6205961;28;20235;-77
2023/03/10 06:00:15;;;;;;;13.03;11.80;;;1.70;80.60;;;;;;6204257;28;20664;-77
2023/03/10 06:03:21;;;;;;;13.50;12.30;;;1.80;80.60;;;;;;6223921;28;20242;-75
2023/03/10 06:06:25;;;;;;;13.13;11.83;;;1.80;80.60;;;;;;6217289;28;20419;-78
2023/03/10 06:09:29;;;;;;;13.67;12.47;;;1.80;80.60;;;;;;6210904;28;20242;-77
2023/03/10 06:12:32;;;;;;;13.27;12.07;;;1.80;80.60;;;;;;6224148;28;20410;-76
2023/03/10 06:15:35;;;;;;;14.07;12.73;;;1.70;80.70;;;;;;6210732;28;20536;-77
2023/03/10 06:18:42;;;;;;;13.07;11.77;;;1.80;80.90;;;;;;6217426;28;20285;-78
2023/03/10 06:21:46;;;;;;;12.87;11.57;;;1.80;80.70;;;;;;6215694;28;20242;-77
2023/03/10 06:24:49;;;;;;;12.17;11.07;;;1.80;80.80;;;;;;6228683;28;20246;-78
2023/03/10 06:27:52;;;;;;;13.60;12.20;;;1.90;80.90;;;;;;6218660;28;20227;-75
2023/03/10 06:30:55;;;;;;;13.20;12.00;;;1.90;81.00;;;;;;6227153;28;20242;-78
2023/03/10 06:34:00;;;;;;;13.27;11.97;;;1.90;81.00;;;;;;6216438;28;20234;-75
2023/03/10 06:37:08;;;;;;;13.20;11.90;;;2.00;80.90;;;;;;6214767;28;20292;-77
2023/03/10 06:40:13;;;;;;;13.47;12.27;;;2.00;80.90;;;;;;6228468;28;20239;-75
2023/03/10 06:43:16;;;;;;;12.07;10.97;;;2.10;80.90;;;;;;6219793;28;20622;-76
2023/03/10 06:46:19;;;;;;;14.07;12.57;;;2.10;80.70;;;;;;6215253;28;20247;-76
2023/03/10 06:49:28;;;;;;;13.60;12.23;;;2.20;80.80;;;;;;6211832;28;20262;-78
2023/03/10 06:52:33;;;;;;;13.77;12.50;;;2.20;80.60;;;;;;6207952;28;20235;-76
2023/03/10 06:55:36;;;;;;;14.67;13.00;;;2.20;80.70;;;;;;6218229;28;20597;-78
2023/03/10 06:58:40;;;;;;;13.77;12.27;;;2.20;80.70;;;;;;6224884;28;20233;-76
2023/03/10 07:01:46;;;;;;;14.67;13.10;;;2.20;80.70;;;;;;6214673;28;20302;-75
2023/03/10 07:04:50;;;;;;;15.93;13.07;;;2.30;80.70;;;;;;6222257;28;20251;-77
2023/03/10 07:07:54;;;;;;;13.77;12.40;;;2.30;80.70;;;;;;6218462;28;20239;-75
2023/03/10 07:10:57;;;;;;;15.10;13.50;;;2.30;80.70;;;;;;6206780;28;20242;-77
2023/03/10 07:14:00;;;;;;;14.17;12.87;;;2.30;80.80;;;;;;6232561;28;20237;-77
2023/03/10 07:17:03;;;;;;;14.57;13.10;;;2.30;80.70;;;;;;6214314;28;20936;-77
2023/03/10 07:20:10;;;;;;;15.90;13.60;;;2.30;80.80;;;;;;6214432;28;20247;-76
2023/03/10 07:23:13;;;;;;;14.33;12.83;;;2.40;80.70;;;;;;6223888;28;20774;-77
2023/03/10 07:26:18;;;;;;;15.43;13.10;;;2.40;80.70;;;;;;6226121;28;20239;-76
2023/03/10 07:29:21;;;;;;;15.47;13.97;;;2.40;80.70;;;;;;6214610;28;20235;-75
2023/03/10 07:32:24;;;;;;;14.60;13.13;;;2.50;80.70;;;;;;6223894;28;20784;-79
2023/03/10 07:35:29;;;;;;;14.23;12.77;;;2.50;80.70;;;;;;6218175;28;20239;-77
2023/03/10 07:38:32;;;;;;;14.30;12.80;;;2.50;80.70;;;;;;6225193;28;20249;-78
2023/03/10 07:41:35;;;;;;;14.70;13.13;;;2.50;80.80;;;;;;6225058;28;20369;-77
2023/03/10 07:44:38;;;;;;;12.97;11.63;;;2.70;80.80;;;;;;6212978;28;20240;-77
2023/03/10 07:47:41;;;;;;;14.73;13.23;;;2.70;80.80;;;;;;6226795;28;20362;-75
2023/03/10 07:50:55;;;;;;;14.70;12.97;;;2.70;80.80;;;;;;6217149;28;20240;-75
2023/03/10 07:53:59;;;;;;;15.47;13.97;;;2.80;80.80;;;;;;6205365;28;20359;-78
2023/03/10 07:57:02;;;;;;;14.83;13.23;;;3.00;80.40;;;;;;6208058;28;20231;-76
2023/03/10 08:00:06;;;;;;;15.20;13.57;;;3.00;80.30;;;;;;6212857;28;20243;-75
2023/03/10 08:03:12;;;;;;;14.33;13.03;;;3.10;80.20;;;;;;6217147;28;20243;-78
2023/03/10 08:06:22;;;;;;;14.97;13.50;;;3.10;80.30;;;;;;6220799;28;20243;-76
2023/03/10 08:09:25;;;;;;;15.53;13.23;;;3.10;80.30;;;;;;6218715;28;20235;-77
2023/03/10 08:12:28;;;;;;;14.47;13.17;;;3.30;79.90;;;;;;6220024;28;20617;-75
2023/03/10 08:15:31;;;;;;;15.87;14.17;;;3.20;79.50;;;;;;6240076;28;20302;-78
2023/03/10 08:18:34;;;;;;;16.07;13.13;;;3.10;80.00;;;;;;6231327;28;20424;-77
2023/03/10 08:21:40;;;;;;;14.20;12.90;;;3.30;80.50;;;;;;6237726;28;20243;-77
2023/03/10 08:24:43;;;;;;;14.13;12.77;;;3.40;80.80;;;;;;6220938;28;20239;-77
2023/03/10 08:27:46;;;;;;;13.90;12.50;;;3.60;80.70;;;;;;6221645;28;20307;-76
2023/03/10 08:30:49;;;;;;;14.27;12.53;;;3.70;80.50;;;;;;6227582;28;20231;-77
2023/03/10 08:34:06;;;;;;;14.23;12.83;;;3.90;80.30;;;;;;6218663;28;20250;-75
2023/03/10 08:37:10;;;;;;;14.97;13.53;;;3.90;80.10;;;;;;6226616;28;20231;-76
2023/03/10 08:40:15;;;;;;;15.20;13.63;;;3.90;80.20;;;;;;6227037;28;20698;-77
2023/03/10 08:43:18;;;;;;;15.53;14.07;;;3.90;79.90;;;;;;6195064;28;20235;-76
2023/03/10 08:46:23;;;;;;;16.77;14.53;;;3.90;80.00;;;;;;6229379;28;20670;-76
2023/03/10 08:49:26;;;;;;;16.37;14.60;;;3.90;80.10;;;;;;6225908;28;20227;-77
2023/03/10 08:52:31;;;;;;;16.20;14.50;;;4.00;80.20;;;;;;6216219;28;20239;-76
2023/03/10 08:55:35;;;;;;;16.83;15.03;;;4.10;80.20;;;;;;6209595;28;20672;-77
2023/03/10 08:58:38;;;;;;;17.47;15.63;;;4.20;80.30;;;;;;6231305;28;20521;-78
2023/03/10 09:01:41;;;;;;;18.80;15.00;;;4.40;80.30;;;;;;6214235;28;20238;-75
2023/03/10 09:04:47;;;;;;;16.77;15.07;;;4.40;79.70;;;;;;6226681;28;20239;-76
2023/03/10 09:07:51;;;;;;;16.87;15.17;;;4.50;79.60;;;;;;6210903;28;20235;-76
2023/03/10 09:10:54;;;;;;;15.87;14.20;;;4.70;79.60;;;;;;6215104;28;20339;-75
2023/03/10 09:13:58;;;;;;;15.30;13.90;;;4.70;79.70;;;;;;6216232;28;20719;-75
2023/03/10 09:17:01;;;;;;;16.93;14.57;;;5.00;79.70;;;;;;6222051;28;20247;-76
2023/03/10 09:20:06;;;;;;;16.60;15.03;;;5.10;78.90;;;;;;6214120;28;20631;-78
2023/03/10 09:23:12;;;;;;;17.13;15.40;;;5.20;78.10;;;;;;6218643;28;20318;-75
2023/03/10 09:26:15;;;;;;;17.10;15.13;;;5.20;77.70;;;;;;6220609;28;20694;-76
2023/03/10 09:29:18;;;;;;;16.90;15.10;;;5.10;77.50;;;;;;6220086;28;20235;-76
2023/03/10 09:32:29;;;;;;;16.53;14.93;;;5.00;78.40;;;;;;6216391;28;20235;-75
2023/03/10 09:35:32;;;;;;;19.27;16.30;;;5.20;79.00;;;;;;6222489;28;20260;-77
2023/03/10 09:38:37;;;;;;;19.53;17.43;;;5.50;78.90;;;;;;6216253;28;20235;-77
2023/03/10 09:42:04;;;;;;;26.67;22.03;;;5.50;78.50;;;;;;6229956;28;20246;-77
2023/03/10 09:45:28;;;;;;;25.07;19.53;;;5.80;78.70;;;;;;6211473;28;20259;-76
2023/03/10 09:48:39;;;;;;;21.83;18.77;;;6.00;78.40;;;;;;6221666;28;20707;-75
2023/03/10 09:51:48;;;;;;;20.70;18.37;;;6.20;78.10;;;;;;6215271;28;20235;-76
2023/03/10 09:55:02;;;;;;;18.80;16.90;;;6.40;77.90;;;;;;6218038;28;20236;-77
2023/03/10 09:58:05;;;;;;;18.77;16.97;;;6.60;77.60;;;;;;6219648;28;20647;-77
2023/03/10 10:01:16;;;;;;;18.97;17.07;;;6.60;77.20;;;;;;6210891;28;20652;-77
2023/03/10 10:04:23;;;;;;;18.57;16.73;;;6.70;77.10;;;;;;6215802;28;20231;-77
2023/03/10 10:07:36;;;;;;;19.10;17.10;;;6.70;77.00;;;;;;6222740;28;20235;-77
2023/03/10 10:10:42;;;;;;;20.00;17.90;;;6.80;76.70;;;;;;6214908;28;20767;-76
2023/03/10 10:13:45;;;;;;;21.43;18.17;;;6.70;76.40;;;;;;6219273;28;20786;-75
2023/03/10 10:16:57;;;;;;;17.57;15.77;;;6.70;77.00;;;;;;6217808;28;20261;-76
2023/03/10 10:20:05;;;;;;;18.73;16.67;;;6.80;77.20;;;;;;6222885;28;20269;-75
2023/03/10 10:23:19;;;;;;;17.23;15.43;;;6.90;77.30;;;;;;6229630;28;20231;-75
2023/03/10 10:26:25;;;;;;;20.03;17.13;;;7.00;77.40;;;;;;6208975;28;20279;-78
2023/03/10 10:29:33;;;;;;;19.07;16.67;;;7.20;77.20;;;;;;6229309;28;20235;-76
2023/03/10 10:32:56;;;;;;;21.37;18.23;;;7.40;77.30;;;;;;6215131;28;20228;-76
2023/03/10 10:36:01;;;;;;;18.50;16.60;;;7.50;76.80;;;;;;6202606;28;20250;-77
2023/03/10 10:39:24;;;;;;;18.93;16.93;;;7.60;76.50;;;;;;6227212;28;20235;-76
2023/03/10 10:42:33;;;;;;;19.33;17.03;;;7.60;76.30;;;;;;6222396;28;20315;-77
2023/03/10 10:45:37;;;;;;;18.50;16.60;;;7.80;76.40;;;;;;6218248;28;20615;-77
2023/03/10 10:48:43;;;;;;;19.37;17.33;;;7.80;76.20;;;;;;6219073;28;20242;-76
2023/03/10 10:51:58;;;;;;;18.27;16.37;;;8.00;75.50;;;;;;6221512;28;20283;-79
2023/03/10 10:55:01;;;;;;;18.20;16.30;;;8.10;75.70;;;;;;6218198;28;20722;-77
2023/03/10 10:58:09;;;;;;;18.73;16.77;;;8.20;75.30;;;;;;6214040;28;20239;-79
2023/03/10 11:01:14;;;;;;;17.23;15.53;;;8.20;73.90;;;;;;6225055;28;20235;-76
2023/03/10 11:04:17;;;;;;;20.40;16.27;;;8.10;73.80;;;;;;6216843;28;20238;-78
2023/03/10 11:07:25;;;;;;;16.67;15.03;;;8.20;74.30;;;;;;6225729;28;20730;-76
2023/03/10 11:10:32;;;;;;;16.47;14.97;;;8.20;74.60;;;;;;6223557;28;20844;-76
2023/03/10 11:13:54;;;;;;;17.30;14.27;;;8.30;74.30;;;;;;6206572;28;20234;-78
2023/03/10 11:17:01;;;;;;;15.07;13.67;;;8.30;74.30;;;;;;6216957;28;20269;-77
2023/03/10 11:20:17;;;;;;;15.53;14.13;;;8.30;74.40;;;;;;6228125;28;20342;-77
2023/03/10 11:23:25;;;;;;;16.30;14.83;;;8.30;74.30;;;;;;6241584;28;20307;-76
2023/03/10 11:26:39;;;;;;;16.47;15.07;;;8.20;74.60;;;;;;6255444;28;20229;-77
2023/03/10 11:29:58;;;;;;;16.80;15.30;;;8.00;75.80;;;;;;6246986;28;20215;-77
2023/03/10 11:33:09;;;;;;;17.17;15.23;;;8.00;76.10;;;;;;6246092;28;20259;-76
2023/03/10 11:36:23;;;;;;;17.27;14.63;;;8.10;76.20;;;;;;6245535;28;20354;-76
2023/03/10 11:39:38;;;;;;;16.07;14.47;;;8.20;75.70;;;;;;6216096;28;20223;-76
2023/03/10 11:42:50;;;;;;;15.40;13.97;;;8.40;75.10;;;;;;6219103;28;20245;-79
2023/03/10 11:45:59;;;;;;;15.23;13.83;;;8.30;75.00;;;;;;6223092;28;20235;-78
2023/03/10 11:49:07;;;;;;;15.27;13.97;;;8.20;75.10;;;;;;6216669;28;20378;-77
2023/03/10 11:52:13;;;;;;;16.13;14.73;;;8.10;75.20;;;;;;6221970;28;20527;-76
2023/03/10 11:55:20;;;;;;;16.27;14.57;;;8.00;75.20;;;;;;6218041;28;20231;-78
2023/03/10 11:58:27;;;;;;;16.20;14.87;;;8.00;75.80;;;;;;6222696;28;20262;-77
2023/03/10 12:01:38;;;;;;;15.40;13.90;;;8.00;75.70;;;;;;6218586;28;20281;-74
2023/03/10 12:04:47;;;;;;;14.75;13.40;;;8.10;75.80;;;;;;6223558;28;20235;-76
2023/03/10 12:07:52;;;;;;;15.63;14.07;;;8.20;75.70;;;;;;6235026;28;20502;-76
2023/03/10 12:10:56;;;;;;;15.07;13.67;;;8.20;75.50;;;;;;6244022;28;20295;-76
2023/03/10 12:14:01;;;;;;;13.43;12.43;;;8.30;75.60;;;;;;6252511;28;20233;-74
2023/03/10 12:17:05;;;;;;;12.27;11.27;;;8.30;75.50;;;;;;6249509;28;20231;-76
2023/03/10 12:20:25;;;;;;;11.57;10.57;;;8.20;75.20;;;;;;6230506;28;20239;-77
2023/03/10 12:23:40;;;;;;;10.60;9.80;;;8.00;75.90;;;;;;6217864;28;20223;-77
2023/03/10 12:27:02;;;;;;;11.07;10.17;;;8.10;76.30;;;;;;6225772;28;20746;-78
2023/03/10 12:30:38;;;;;;;9.20;8.50;;;8.00;75.70;;;;;;6216492;28;20239;-78
2023/03/10 12:37:22;;;;;;;8.20;7.70;;;8.10;76.00;;;;;;6316678;27;20960;-76
2023/03/10 12:40:50;;;;;;;8.37;7.87;;;8.20;75.20;;;;;;6309116;28;20241;-76
2023/03/10 12:43:55;;;;;;;8.80;8.30;;;8.10;74.90;;;;;;6283565;27;20471;-76
2023/03/10 12:47:11;;;;;;;10.57;9.77;;;8.00;74.80;;;;;;6287779;27;20811;-75
2023/03/10 12:50:32;;;;;;;13.13;12.13;;;8.00;74.80;;;;;;6301950;27;20434;-75
2023/03/10 12:53:46;;;;;;;13.53;12.53;;;7.90;75.00;;;;;;6306908;27;20260;-77
2023/03/10 12:56:57;;;;;;;11.30;10.50;;;8.00;75.10;;;;;;6310738;27;20240;-77
2023/03/10 13:00:05;;;;;;;9.97;9.27;;;8.00;74.70;;;;;;6294846;27;20320;-79
2023/03/10 13:03:19;;;;;;;9.70;9.10;;;8.00;74.30;;;;;;6301898;28;20401;-77
2023/03/10 13:06:29;;;;;;;9.30;8.70;;;8.00;74.30;;;;;;6307530;27;20233;-76
2023/03/10 13:09:40;;;;;;;8.67;8.17;;;8.10;74.00;;;;;;6296333;27;20233;-75
2023/03/10 13:12:49;;;;;;;8.30;7.80;;;8.20;73.20;;;;;;6306086;27;20286;-77
2023/03/10 13:15:58;;;;;;;7.40;7.10;;;8.40;72.30;;;;;;6299357;27;20240;-76
2023/03/10 13:19:02;;;;;;;7.93;7.43;;;8.60;71.80;;;;;;6302845;28;20229;-76
2023/03/10 13:22:05;;;;;;;7.47;7.07;;;8.60;70.70;;;;;;6298591;27;20237;-75
2023/03/10 13:25:14;;;;;;;7.10;6.70;;;8.50;71.10;;;;;;6306297;27;20490;-75
2023/03/10 13:28:17;;;;;;;6.97;6.50;;;8.40;71.40;;;;;;6305111;27;20224;-78
2023/03/10 13:31:22;;;;;;;6.77;6.37;;;8.30;71.00;;;;;;6301014;27;20240;-76
2023/03/10 13:34:31;;;;;;;7.93;7.43;;;8.30;71.40;;;;;;6297288;27;20240;-77
2023/03/10 13:37:33;;;;;;;8.17;7.67;;;8.30;71.20;;;;;;6297057;27;20245;-74
2023/03/10 13:40:40;;;;;;;9.17;8.47;;;8.30;72.10;;;;;;6295955;28;20701;-76
2023/03/10 13:43:47;;;;;;;7.53;7.07;;;8.20;72.60;;;;;;6291686;27;20233;-75
2023/03/10 13:46:51;;;;;;;7.30;6.90;;;8.20;71.80;;;;;;6292892;27;20285;-77
2023/03/10 13:49:58;;;;;;;6.90;6.50;;;8.20;72.30;;;;;;6290550;28;20660;-77
2023/03/10 13:53:03;;;;;;;7.00;6.60;;;8.30;72.00;;;;;;6276670;28;20554;-76
2023/03/10 13:56:17;;;;;;;7.33;6.87;;;8.40;72.00;;;;;;6273849;28;20287;-77
2023/03/10 13:59:25;;;;;;;7.43;6.90;;;8.30;71.70;;;;;;6266245;28;20235;-76
2023/03/10 14:02:31;;;;;;;8.73;8.13;;;8.20;71.80;;;;;;6272769;28;20252;-76
2023/03/10 14:05:44;;;;;;;9.00;8.40;;;8.20;72.00;;;;;;6275519;28;20637;-77
2023/03/10 14:08:47;;;;;;;9.70;9.00;;;8.20;72.30;;;;;;6280442;28;20237;-74
2023/03/10 14:11:52;;;;;;;8.90;8.30;;;8.10;72.60;;;;;;6288843;28;20238;-76
2023/03/10 14:15:08;;;;;;;7.93;7.53;;;8.10;72.10;;;;;;6283319;28;20231;-77
2023/03/10 14:18:19;;;;;;;9.57;8.77;;;8.00;72.00;;;;;;6281961;28;20236;-74
2023/03/10 14:21:29;;;;;;;9.37;8.67;;;7.90;72.00;;;;;;6281850;28;20439;-78
2023/03/10 14:24:32;;;;;;;8.70;8.10;;;7.80;72.00;;;;;;6283971;28;20257;-75
2023/03/10 14:27:39;;;;;;;8.70;8.20;;;7.70;72.10;;;;;;6263505;28;20250;-74
2023/03/10 14:30:44;;;;;;;9.70;9.00;;;7.60;72.50;;;;;;6275590;27;20335;-76
2023/03/10 14:33:47;;;;;;;9.23;8.53;;;7.50;72.90;;;;;;6267669;28;20256;-75
2023/03/10 14:36:50;;;;;;;10.23;9.40;;;7.50;73.20;;;;;;6267262;28;20359;-75
2023/03/10 14:39:53;;;;;;;9.63;8.83;;;7.40;73.20;;;;;;6266040;28;20383;-76
2023/03/10 14:43:01;;;;;;;10.13;9.43;;;7.40;73.20;;;;;;6252176;28;20313;-76
2023/03/10 14:46:05;;;;;;;9.23;8.63;;;7.30;72.70;;;;;;6286741;28;20257;-76
2023/03/10 14:49:14;;;;;;;10.73;9.80;;;7.20;72.80;;;;;;6284082;27;20873;-76
2023/03/10 14:52:19;;;;;;;10.60;9.80;;;7.10;72.50;;;;;;6288354;28;20241;-76
2023/03/10 14:55:22;;;;;;;9.07;8.47;;;7.00;72.70;;;;;;6293933;28;20226;-77
2023/03/10 14:58:30;;;;;;;8.30;7.80;;;6.90;72.30;;;;;;6287802;28;20236;-75
2023/03/10 15:01:33;;;;;;;8.60;7.83;;;6.80;72.00;;;;;;6290270;27;20232;-75
2023/03/10 15:04:36;;;;;;;10.10;9.40;;;6.80;72.20;;;;;;6278981;28;20372;-75
2023/03/10 15:07:39;;;;;;;11.93;10.93;;;6.80;72.20;;;;;;6272128;28;20233;-78
2023/03/10 15:10:46;;;;;;;11.97;10.83;;;6.70;72.30;;;;;;6282481;28;20244;-75
2023/03/10 15:13:51;;;;;;;12.07;10.87;;;6.50;72.60;;;;;;6294269;28;20736;-77
2023/03/10 15:16:55;;;;;;;12.00;10.80;;;6.40;72.70;;;;;;6273159;28;20233;-76
2023/03/10 15:20:02;;;;;;;10.93;10.03;;;6.20;73.00;;;;;;6280763;28;20238;-76
2023/03/10 15:23:06;;;;;;;11.50;9.80;;;6.10;73.20;;;;;;6291031;28;20230;-77
2023/03/10 15:26:13;;;;;;;11.07;10.07;;;6.00;73.30;;;;;;6294346;28;20441;-81
2023/03/10 15:29:19;;;;;;;9.93;9.13;;;6.00;73.20;;;;;;6277396;28;20229;-77
2023/03/10 15:32:24;;;;;;;11.23;10.13;;;5.80;73.20;;;;;;6268399;28;20241;-80
2023/03/10 15:35:31;;;;;;;11.50;10.50;;;5.80;73.40;;;;;;6267606;28;20744;-79
2023/03/10 15:38:37;;;;;;;11.77;10.67;;;5.80;73.30;;;;;;6281040;28;20238;-78
2023/03/10 15:41:44;;;;;;;11.97;10.87;;;5.70;73.50;;;;;;6263700;27;20244;-79
2023/03/10 15:44:53;;;;;;;12.60;11.50;;;5.70;73.70;;;;;;6259657;28;20225;-80
2023/03/10 15:47:59;;;;;;;13.20;12.00;;;5.70;73.60;;;;;;6277743;28;20843;-81
2023/03/10 15:51:02;;;;;;;12.30;11.10;;;5.60;73.60;;;;;;6274657;28;20240;-77
2023/03/10 15:54:05;;;;;;;12.93;11.87;;;5.60;73.70;;;;;;6269477;28;20617;-80
2023/03/10 15:57:10;;;;;;;12.57;11.10;;;5.60;73.90;;;;;;6274658;28;20237;-79
2023/03/10 16:00:17;;;;;;;13.90;12.70;;;5.50;74.30;;;;;;6274046;28;20607;-77
2023/03/10 16:03:20;;;;;;;14.67;13.27;;;5.40;74.60;;;;;;6280006;28;20823;-78